Wetterdaten: aktuell Sonntag, 17.01.2021 17:40
Datum Zeit Temp. A. Feuchte A. Luftdruck Regen Wind Taupunkt Windchill Windben
17.01.2021 17:40 -1,8 C 82 % 1023,7 hPa 0,0 l/m 0,3 km/h (0 Bft) -4,5 C -1,8 C 3,2 km/h (1 Bft)
17.01.2021 17:35 -1,8 C 82 % 1023,7 hPa 0,0 l/m 0,7 km/h (0 Bft) -4,5 C -1,8 C 3,2 km/h (1 Bft)
17.01.2021 17:30 -1,8 C 82 % 1023,6 hPa 0,0 l/m 0,9 km/h (0 Bft) -4,5 C -1,8 C 3,2 km/h (1 Bft)
17.01.2021 17:25 -1,8 C 82 % 1023,6 hPa 0,0 l/m 1,5 km/h (1 Bft) -4,5 C -1,8 C 4,8 km/h (1 Bft)
17.01.2021 17:20 -1,7 C 82 % 1023,5 hPa 0,0 l/m 1,3 km/h (1 Bft) -4,4 C -1,7 C 3,2 km/h (1 Bft)
17.01.2021 17:15 -1,7 C 82 % 1023,4 hPa 0,0 l/m 0,9 km/h (0 Bft) -4,4 C -1,7 C 3,2 km/h (1 Bft)
17.01.2021 17:10 -1,7 C 82 % 1023,3 hPa 0,0 l/m 0,2 km/h (0 Bft) -4,4 C -1,7 C 1,6 km/h (1 Bft)
17.01.2021 17:05 -1,7 C 82 % 1023,3 hPa 0,0 l/m 0,5 km/h (0 Bft) -4,4 C -1,7 C 3,2 km/h (1 Bft)
17.01.2021 17:00 -1,7 C 82 % 1023,3 hPa 0,0 l/m 1,0 km/h (0 Bft) -4,4 C -1,7 C 3,2 km/h (1 Bft)
17.01.2021 16:55 -1,6 C 81 % 1023,2 hPa 0,0 l/m 0,1 km/h (0 Bft) -4,4 C -1,6 C 1,6 km/h (1 Bft)
17.01.2021 16:50 -1,6 C 81 % 1023,2 hPa 0,0 l/m 0,3 km/h (0 Bft) -4,4 C -1,6 C 3,2 km/h (1 Bft)
17.01.2021 16:45 -1,6 C 81 % 1023,0 hPa 0,0 l/m 0,5 km/h (0 Bft) -4,4 C -1,6 C 1,6 km/h (1 Bft)
17.01.2021 16:40 -1,5 C 81 % 1022,9 hPa 0,0 l/m 1,2 km/h (1 Bft) -4,3 C -1,5 C 4,8 km/h (1 Bft)
17.01.2021 16:35 -1,4 C 81 % 1022,9 hPa 0,0 l/m 0,7 km/h (0 Bft) -4,2 C -1,4 C 3,2 km/h (1 Bft)
17.01.2021 16:30 -1,4 C 81 % 1022,8 hPa 0,0 l/m 2,1 km/h (1 Bft) -4,2 C -1,4 C 4,8 km/h (1 Bft)
17.01.2021 16:25 -1,4 C 81 % 1022,7 hPa 0,0 l/m 2,6 km/h (1 Bft) -4,2 C -1,4 C 4,8 km/h (1 Bft)
17.01.2021 16:20 -1,4 C 81 % 1022,8 hPa 0,0 l/m 1,9 km/h (1 Bft) -4,2 C -1,4 C 4,8 km/h (1 Bft)
17.01.2021 16:15 -1,4 C 81 % 1022,7 hPa 0,0 l/m 0,9 km/h (0 Bft) -4,2 C -1,4 C 4,8 km/h (1 Bft)
17.01.2021 16:10 -1,4 C 81 % 1022,6 hPa 0,0 l/m 1,7 km/h (1 Bft) -4,2 C -1,4 C 4,8 km/h (1 Bft)
17.01.2021 16:05 -1,4 C 81 % 1022,5 hPa 0,0 l/m 2,1 km/h (1 Bft) -4,2 C -1,4 C 4,8 km/h (1 Bft)
17.01.2021 16:00 -1,4 C 80 % 1022,5 hPa 0,0 l/m 0,8 km/h (0 Bft) -4,4 C -1,4 C 3,2 km/h (1 Bft)
_ Min-Zeit 02:25 00:00 06:15 - 01:25 00:45 03:15 01:25
Minimum _ -4,1 C 74 % 1019,3 hPa - 0,0 km/h (0 Bft) -7,7 C -4,1 C 0,0 km/h (0 Bft)
_ Max-Zeit 14:10 17:00 17:35 13:40 06:06 16:05 14:10 06:10
Maximum _ -1,3 C 82 % 1023,7 hPa 0,2 l/m 5,3 km/h
O (1 Bft)
-4,2 C -1,3 C 11,3 km/h
O (2 Bft)
Durchschnitt _ -2,9 C 78 % 1020,9 hPa #0,2 l/m 1,9 km/h (1 Bft) -6,1 C -2,9 C 4,7 km/h (1 Bft)